createdAt,value
2022-12-20T00:03:53.577Z,4.20
2022-12-20T00:08:59.439Z,4.20
2022-12-20T00:14:02.624Z,4.20
2022-12-20T00:19:08.018Z,4.20
2022-12-20T00:24:12.862Z,4.20
2022-12-20T00:29:15.943Z,4.20
2022-12-20T00:34:19.237Z,4.30
2022-12-20T00:39:23.691Z,4.20
2022-12-20T00:44:28.533Z,4.20
2022-12-20T00:49:31.594Z,4.10
2022-12-20T00:54:36.194Z,4.10
2022-12-20T00:59:39.290Z,4.00
2022-12-20T01:04:42.361Z,4.00
2022-12-20T01:09:46.800Z,4.00
2022-12-20T01:14:49.866Z,4.00
2022-12-20T01:19:52.921Z,4.00
2022-12-20T01:24:57.398Z,4.00
2022-12-20T01:30:00.474Z,4.00
2022-12-20T01:35:03.588Z,4.00
2022-12-20T01:40:10.546Z,3.90
2022-12-20T01:45:24.266Z,3.90
2022-12-20T01:50:29.351Z,3.90
2022-12-20T01:55:35.094Z,3.90
2022-12-20T02:00:38.394Z,3.90
2022-12-20T02:05:44.392Z,3.90
2022-12-20T02:11:09.615Z,3.90
2022-12-20T02:16:20.413Z,3.90
2022-12-20T02:21:32.599Z,3.90
2022-12-20T02:27:02.150Z,3.90
2022-12-20T02:32:14.040Z,3.90
2022-12-20T02:37:17.429Z,3.90
2022-12-20T02:42:25.135Z,3.90
2022-12-20T02:47:34.677Z,4.00
2022-12-20T02:52:39.157Z,3.80
2022-12-20T02:57:52.136Z,3.80
2022-12-20T03:03:17.741Z,3.90
2022-12-20T03:08:22.013Z,3.80
2022-12-20T03:13:26.549Z,3.90
2022-12-20T03:18:30.996Z,3.80
2022-12-20T03:23:34.168Z,3.80
2022-12-20T03:28:37.254Z,3.80
2022-12-20T03:33:41.869Z,4.00
2022-12-20T03:38:44.935Z,3.90
2022-12-20T03:43:48.021Z,3.90
2022-12-20T03:48:52.454Z,3.80
2022-12-20T03:53:55.754Z,3.80
2022-12-20T03:58:58.815Z,3.80
2022-12-20T04:04:03.836Z,3.80
2022-12-20T04:09:07.099Z,3.80
2022-12-20T04:14:10.274Z,3.80
2022-12-20T04:19:14.859Z,3.70
2022-12-20T04:24:18.301Z,3.80
2022-12-20T04:29:21.453Z,3.90
2022-12-20T04:34:26.077Z,3.80
2022-12-20T04:39:29.258Z,3.80
2022-12-20T04:44:32.456Z,3.80
2022-12-20T04:49:36.928Z,3.80
2022-12-20T04:54:39.985Z,3.80
2022-12-20T04:59:43.902Z,3.80
2022-12-20T05:04:48.349Z,3.80
2022-12-20T05:09:51.472Z,3.90
2022-12-20T05:14:54.550Z,3.70
2022-12-20T05:19:59.026Z,3.80
2022-12-20T05:25:19.380Z,3.80
2022-12-20T05:30:23.022Z,3.80
2022-12-20T05:35:27.477Z,3.80
2022-12-20T05:40:30.614Z,3.70
2022-12-20T05:45:33.845Z,3.80
2022-12-20T05:50:38.344Z,3.80
2022-12-20T05:55:45.775Z,3.70
2022-12-20T06:00:49.131Z,3.70
2022-12-20T06:05:53.639Z,3.70
2022-12-20T06:10:56.865Z,3.70
2022-12-20T06:16:00.525Z,3.70
2022-12-20T06:21:05.250Z,3.70
2022-12-20T06:26:09.405Z,3.80
2022-12-20T06:31:12.920Z,3.80
2022-12-20T06:36:17.473Z,4.00
2022-12-20T06:41:20.684Z,4.00
2022-12-20T06:46:23.909Z,4.00
2022-12-20T06:51:28.417Z,4.00
2022-12-20T06:56:36.066Z,4.00
2022-12-20T07:01:42.798Z,4.00
2022-12-20T07:06:47.547Z,4.10
2022-12-20T07:11:50.859Z,3.90
2022-12-20T07:16:54.050Z,3.90
2022-12-20T07:21:58.638Z,4.00
2022-12-20T07:27:02.289Z,3.90
2022-12-20T07:32:05.763Z,3.90
2022-12-20T07:37:10.644Z,3.90
2022-12-20T07:42:14.157Z,3.90
2022-12-20T07:47:17.593Z,3.90
2022-12-20T07:52:25.141Z,3.90
2022-12-20T07:57:33.176Z,3.90
2022-12-20T08:02:41.677Z,3.90
2022-12-20T08:07:51.099Z,4.00
2022-12-20T08:12:59.591Z,3.90
2022-12-20T08:18:02.725Z,3.90
2022-12-20T08:23:07.275Z,4.00
2022-12-20T08:28:10.920Z,4.00
2022-12-20T08:33:14.296Z,4.00
2022-12-20T08:38:18.742Z,4.10
2022-12-20T08:43:21.859Z,4.20
2022-12-20T08:48:25.102Z,4.20
2022-12-20T08:53:30.515Z,4.20
2022-12-20T08:58:33.882Z,4.20
2022-12-20T09:03:38.091Z,4.30
2022-12-20T09:08:43.379Z,4.30
2022-12-20T09:13:48.246Z,4.30
2022-12-20T09:18:52.124Z,4.30
2022-12-20T09:23:57.982Z,4.30
2022-12-20T09:29:02.134Z,4.40
2022-12-20T09:34:05.283Z,4.50
2022-12-20T09:39:11.935Z,4.50
2022-12-20T09:44:19.260Z,4.60
2022-12-20T09:49:29.914Z,4.60
2022-12-20T09:54:42.282Z,4.70
2022-12-20T09:59:49.461Z,4.80
2022-12-20T10:04:55.399Z,4.90
2022-12-20T10:10:26.093Z,4.90
2022-12-20T10:15:35.107Z,5.00
2022-12-20T10:20:47.967Z,5.10
2022-12-20T10:25:56.482Z,5.20
2022-12-20T10:31:04.266Z,5.30
2022-12-20T10:36:22.697Z,5.40
2022-12-20T10:41:28.889Z,5.40
2022-12-20T10:46:41.503Z,5.50
2022-12-20T10:51:53.377Z,5.60
2022-12-20T10:56:59.997Z,5.60
2022-12-20T11:02:04.740Z,5.60
2022-12-20T11:07:29.546Z,5.70
2022-12-20T11:12:33.990Z,5.70
2022-12-20T11:17:39.901Z,5.80
2022-12-20T11:22:52.806Z,5.80
2022-12-20T11:28:11.111Z,5.80
2022-12-20T11:33:47.565Z,5.90
2022-12-20T11:38:59.874Z,5.90
2022-12-20T11:44:25.462Z,5.90
2022-12-20T11:49:58.426Z,6.00
2022-12-20T11:55:15.964Z,6.00
2022-12-20T12:00:22.784Z,6.00
2022-12-20T12:05:30.724Z,6.00
2022-12-20T12:10:38.442Z,6.00
2022-12-20T12:15:52.303Z,6.00
2022-12-20T12:21:08.317Z,6.10
2022-12-20T12:26:16.702Z,6.10
2022-12-20T12:31:29.933Z,6.20
2022-12-20T12:36:47.357Z,6.20
2022-12-20T12:42:17.658Z,6.30
2022-12-20T12:47:26.100Z,6.30
2022-12-20T12:52:50.582Z,6.40
2022-12-20T12:57:57.977Z,6.50
2022-12-20T13:03:15.343Z,6.60
2022-12-20T13:08:19.091Z,6.60
2022-12-20T13:13:24.425Z,6.60
2022-12-20T13:18:29.784Z,6.70
2022-12-20T13:23:32.922Z,6.70
2022-12-20T13:28:46.711Z,6.70
2022-12-20T13:33:51.951Z,6.70
2022-12-20T13:39:01.127Z,6.70
2022-12-20T13:44:43.159Z,6.70
2022-12-20T13:49:47.667Z,6.80
2022-12-20T13:54:53.872Z,7.10
2022-12-20T14:00:06.552Z,7.50
2022-12-20T14:05:19.440Z,7.70
2022-12-20T14:10:25.972Z,7.80
2022-12-20T14:15:31.715Z,7.70
2022-12-20T14:20:37.618Z,7.70
2022-12-20T14:25:45.965Z,7.70
2022-12-20T14:30:49.103Z,7.60
2022-12-20T14:35:53.704Z,7.60
2022-12-20T14:40:56.829Z,7.70
2022-12-20T14:46:17.901Z,7.70
2022-12-20T14:51:22.862Z,7.60
2022-12-20T14:56:31.740Z,7.50
2022-12-20T15:01:40.130Z,7.40
2022-12-20T15:06:49.487Z,7.40
2022-12-20T15:11:53.125Z,7.30
2022-12-20T15:16:56.370Z,7.40
2022-12-20T15:22:01.760Z,7.40
2022-12-20T15:27:05.032Z,7.40
2022-12-20T15:32:15.605Z,7.30
2022-12-20T15:37:20.293Z,7.30
2022-12-20T15:42:24.893Z,7.20
2022-12-20T15:47:28.115Z,7.20
2022-12-20T15:52:33.391Z,7.20
2022-12-20T15:57:36.640Z,7.10
2022-12-20T16:02:40.153Z,7.10
2022-12-20T16:07:44.759Z,7.00
2022-12-20T16:12:48.443Z,7.00
2022-12-20T16:17:51.605Z,7.00
2022-12-20T16:22:56.467Z,6.90
2022-12-20T16:27:59.823Z,6.90
2022-12-20T16:33:04.895Z,6.80
2022-12-20T16:38:13.791Z,6.80
2022-12-20T16:43:18.332Z,6.80
2022-12-20T16:48:21.680Z,6.80
2022-12-20T16:53:26.120Z,6.80
2022-12-20T16:59:00.003Z,6.80
2022-12-20T17:03:53.389Z,6.80
2022-12-20T17:14:19.991Z,6.70
2022-12-20T17:19:23.223Z,6.70
2022-12-20T17:24:27.694Z,6.70
2022-12-20T17:29:30.926Z,6.70
2022-12-20T17:34:34.718Z,6.70
2022-12-20T17:39:39.282Z,6.70
2022-12-20T17:44:42.505Z,6.70
2022-12-20T17:49:45.661Z,6.70
2022-12-20T17:54:50.371Z,6.80
2022-12-20T17:59:53.508Z,6.80
2022-12-20T18:04:56.623Z,6.90
2022-12-20T18:10:01.175Z,7.00
2022-12-20T18:15:06.973Z,7.10
2022-12-20T18:20:11.711Z,7.10
2022-12-20T18:25:18.288Z,7.10
2022-12-20T18:30:21.691Z,7.00
2022-12-20T18:35:24.799Z,7.00
2022-12-20T18:40:29.284Z,6.90
2022-12-20T18:45:34.997Z,6.90
2022-12-20T18:50:38.174Z,6.90
2022-12-20T18:55:42.716Z,6.90
2022-12-20T19:00:45.984Z,6.90
2022-12-20T19:05:53.308Z,6.90
2022-12-20T19:11:01.829Z,6.80
2022-12-20T19:16:08.332Z,6.80
2022-12-20T19:21:13.256Z,6.80
2022-12-20T19:26:19.500Z,6.80
2022-12-20T19:31:24.726Z,6.80
2022-12-20T19:36:31.585Z,6.80
2022-12-20T19:41:36.809Z,6.70
2022-12-20T19:46:40.358Z,6.70
2022-12-20T19:51:43.658Z,6.60
2022-12-20T19:56:48.163Z,6.50
2022-12-20T20:01:51.483Z,6.50
2022-12-20T20:06:56.408Z,6.40
2022-12-20T20:12:01.181Z,6.40
2022-12-20T20:17:04.351Z,6.40
2022-12-20T20:22:07.586Z,6.40
2022-12-20T20:27:12.233Z,6.50
2022-12-20T20:32:15.391Z,6.50
2022-12-20T20:37:18.531Z,6.60
2022-12-20T20:42:23.691Z,6.60
2022-12-20T20:47:26.983Z,6.60
2022-12-20T20:52:30.094Z,6.70
2022-12-20T20:57:34.750Z,6.70
2022-12-20T21:02:39.291Z,6.70
2022-12-20T21:07:42.644Z,6.70
2022-12-20T21:12:47.155Z,6.70
2022-12-20T21:17:50.393Z,6.70
2022-12-20T21:22:53.661Z,6.70
2022-12-20T21:27:58.682Z,6.70
2022-12-20T21:33:02.007Z,6.70
2022-12-20T21:38:05.244Z,6.70
2022-12-20T21:43:09.786Z,6.70
2022-12-20T21:48:13.272Z,6.70
2022-12-20T21:53:19.614Z,6.70
2022-12-20T21:58:24.536Z,6.70
2022-12-20T22:03:28.037Z,6.70
2022-12-20T22:08:32.791Z,6.70
2022-12-20T22:13:41.539Z,6.70
2022-12-20T22:18:48.784Z,6.70
2022-12-20T22:23:51.969Z,6.70
2022-12-20T22:28:58.768Z,6.70
2022-12-20T22:34:02.386Z,6.70
2022-12-20T22:39:05.554Z,6.70
2022-12-20T22:44:10.072Z,6.60
2022-12-20T22:49:17.858Z,6.60
2022-12-20T22:54:21.033Z,6.60
2022-12-20T22:59:25.527Z,6.60
2022-12-20T23:04:28.637Z,6.60
2022-12-20T23:09:31.816Z,6.60
2022-12-20T23:15:03.792Z,6.60
2022-12-20T23:20:26.108Z,6.60
2022-12-20T23:25:29.345Z,6.60
2022-12-20T23:30:33.866Z,6.60
2022-12-20T23:35:37.015Z,6.60
2022-12-20T23:40:42.065Z,6.60
2022-12-20T23:45:46.857Z,6.50
2022-12-20T23:50:56.796Z,6.50
2022-12-20T23:56:03.357Z,6.50
